sensor_id;sensor_type;location;lat;lon;timestamp;temperature;humidity
32293;DHT22;43233;48.608;8.838;2023-06-26T00:00:30;20.50;38.90
32293;DHT22;43233;48.608;8.838;2023-06-26T00:02:57;20.40;39.10
32293;DHT22;43233;48.608;8.838;2023-06-26T00:05:23;20.30;39.30
32293;DHT22;43233;48.608;8.838;2023-06-26T00:07:48;20.30;39.70
32293;DHT22;43233;48.608;8.838;2023-06-26T00:10:14;20.30;39.70
32293;DHT22;43233;48.608;8.838;2023-06-26T00:12:39;20.30;39.90
32293;DHT22;43233;48.608;8.838;2023-06-26T00:15:05;20.30;39.90
32293;DHT22;43233;48.608;8.838;2023-06-26T00:17:33;20.20;39.80
32293;DHT22;43233;48.608;8.838;2023-06-26T00:20:02;20.20;39.90
32293;DHT22;43233;48.608;8.838;2023-06-26T00:22:29;20.10;40.10
32293;DHT22;43233;48.608;8.838;2023-06-26T00:24:54;20.00;40.40
32293;DHT22;43233;48.608;8.838;2023-06-26T00:27:20;20.00;40.50
32293;DHT22;43233;48.608;8.838;2023-06-26T00:29:46;20.00;40.60
32293;DHT22;43233;48.608;8.838;2023-06-26T00:32:11;20.00;40.60
32293;DHT22;43233;48.608;8.838;2023-06-26T00:34:37;20.00;40.70
32293;DHT22;43233;48.608;8.838;2023-06-26T00:37:03;20.00;40.90
32293;DHT22;43233;48.608;8.838;2023-06-26T00:39:29;19.90;41.10
32293;DHT22;43233;48.608;8.838;2023-06-26T00:41:54;19.90;41.40
32293;DHT22;43233;48.608;8.838;2023-06-26T00:44:21;20.00;41.30
32293;DHT22;43233;48.608;8.838;2023-06-26T00:46:46;19.90;41.50
32293;DHT22;43233;48.608;8.838;2023-06-26T00:49:12;19.80;41.80
32293;DHT22;43233;48.608;8.838;2023-06-26T00:51:38;19.70;41.80
32293;DHT22;43233;48.608;8.838;2023-06-26T00:54:04;19.70;41.80
32293;DHT22;43233;48.608;8.838;2023-06-26T00:56:31;19.70;41.90
32293;DHT22;43233;48.608;8.838;2023-06-26T00:58:57;19.70;42.20
32293;DHT22;43233;48.608;8.838;2023-06-26T01:01:22;19.70;41.90
32293;DHT22;43233;48.608;8.838;2023-06-26T01:03:51;19.70;41.90
32293;DHT22;43233;48.608;8.838;2023-06-26T01:06:20;19.60;41.70
32293;DHT22;43233;48.608;8.838;2023-06-26T01:08:48;19.60;42.00
32293;DHT22;43233;48.608;8.838;2023-06-26T01:11:14;19.60;42.40
32293;DHT22;43233;48.608;8.838;2023-06-26T01:13:42;19.50;42.70
32293;DHT22;43233;48.608;8.838;2023-06-26T01:16:09;19.40;42.90
32293;DHT22;43233;48.608;8.838;2023-06-26T01:18:37;19.40;43.00
32293;DHT22;43233;48.608;8.838;2023-06-26T01:21:09;19.40;43.00
32293;DHT22;43233;48.608;8.838;2023-06-26T01:26:19;19.20;43.40
32293;DHT22;43233;48.608;8.838;2023-06-26T01:28:45;19.10;43.60
32293;DHT22;43233;48.608;8.838;2023-06-26T01:31:12;19.10;43.90
32293;DHT22;43233;48.608;8.838;2023-06-26T01:33:40;19.10;43.80
32293;DHT22;43233;48.608;8.838;2023-06-26T01:36:07;19.00;43.70
32293;DHT22;43233;48.608;8.838;2023-06-26T01:38:32;19.00;43.70
32293;DHT22;43233;48.608;8.838;2023-06-26T01:40:58;19.00;43.90
32293;DHT22;43233;48.608;8.838;2023-06-26T01:46:04;19.00;44.50
32293;DHT22;43233;48.608;8.838;2023-06-26T01:49:07;19.00;44.40
32293;DHT22;43233;48.608;8.838;2023-06-26T01:51:32;18.90;44.50
32293;DHT22;43233;48.608;8.838;2023-06-26T01:54:01;18.90;44.90
32293;DHT22;43233;48.608;8.838;2023-06-26T01:56:28;18.80;44.60
32293;DHT22;43233;48.608;8.838;2023-06-26T01:58:55;18.80;44.90
32293;DHT22;43233;48.608;8.838;2023-06-26T02:01:21;18.70;45.10
32293;DHT22;43233;48.608;8.838;2023-06-26T02:03:48;18.70;45.20
32293;DHT22;43233;48.608;8.838;2023-06-26T02:06:14;18.70;45.40
32293;DHT22;43233;48.608;8.838;2023-06-26T02:08:40;18.60;45.70
32293;DHT22;43233;48.608;8.838;2023-06-26T02:11:06;18.60;45.90
32293;DHT22;43233;48.608;8.838;2023-06-26T02:13:31;18.60;46.00
32293;DHT22;43233;48.608;8.838;2023-06-26T02:15:57;18.60;45.90
32293;DHT22;43233;48.608;8.838;2023-06-26T02:18:23;18.50;46.10
32293;DHT22;43233;48.608;8.838;2023-06-26T02:20:50;18.50;46.30
32293;DHT22;43233;48.608;8.838;2023-06-26T02:23:15;18.50;46.30
32293;DHT22;43233;48.608;8.838;2023-06-26T02:25:41;18.50;46.50
32293;DHT22;43233;48.608;8.838;2023-06-26T02:28:07;18.40;46.70
32293;DHT22;43233;48.608;8.838;2023-06-26T02:30:33;18.30;46.80
32293;DHT22;43233;48.608;8.838;2023-06-26T02:32:58;18.30;47.00
32293;DHT22;43233;48.608;8.838;2023-06-26T02:35:24;18.30;47.50
32293;DHT22;43233;48.608;8.838;2023-06-26T02:37:49;18.30;47.60
32293;DHT22;43233;48.608;8.838;2023-06-26T02:40:16;18.30;47.50
32293;DHT22;43233;48.608;8.838;2023-06-26T02:42:42;18.30;48.40
32293;DHT22;43233;48.608;8.838;2023-06-26T02:45:08;18.30;47.70
32293;DHT22;43233;48.608;8.838;2023-06-26T02:47:34;18.30;47.90
32293;DHT22;43233;48.608;8.838;2023-06-26T02:49:59;18.30;48.10
32293;DHT22;43233;48.608;8.838;2023-06-26T02:52:25;18.30;48.10
32293;DHT22;43233;48.608;8.838;2023-06-26T02:54:51;18.30;47.90
32293;DHT22;43233;48.608;8.838;2023-06-26T02:57:16;18.30;48.10
32293;DHT22;43233;48.608;8.838;2023-06-26T02:59:42;18.30;48.00
32293;DHT22;43233;48.608;8.838;2023-06-26T03:02:08;18.30;48.00
32293;DHT22;43233;48.608;8.838;2023-06-26T03:04:34;18.20;48.10
32293;DHT22;43233;48.608;8.838;2023-06-26T03:07:03;18.20;48.20
32293;DHT22;43233;48.608;8.838;2023-06-26T03:09:28;18.10;48.60
32293;DHT22;43233;48.608;8.838;2023-06-26T03:11:54;18.10;48.90
32293;DHT22;43233;48.608;8.838;2023-06-26T03:14:21;18.10;48.90
32293;DHT22;43233;48.608;8.838;2023-06-26T03:16:46;18.10;49.30
32293;DHT22;43233;48.608;8.838;2023-06-26T03:19:12;18.10;49.60
32293;DHT22;43233;48.608;8.838;2023-06-26T03:21:37;18.10;50.00
32293;DHT22;43233;48.608;8.838;2023-06-26T03:24:03;18.20;50.40
32293;DHT22;43233;48.608;8.838;2023-06-26T03:26:29;18.20;50.60
32293;DHT22;43233;48.608;8.838;2023-06-26T03:28:55;18.20;50.90
32293;DHT22;43233;48.608;8.838;2023-06-26T03:31:20;18.20;50.90
32293;DHT22;43233;48.608;8.838;2023-06-26T03:33:46;18.20;51.10
32293;DHT22;43233;48.608;8.838;2023-06-26T03:36:12;18.20;50.80
32293;DHT22;43233;48.608;8.838;2023-06-26T03:38:37;18.20;51.10
32293;DHT22;43233;48.608;8.838;2023-06-26T03:41:03;18.20;51.60
32293;DHT22;43233;48.608;8.838;2023-06-26T03:43:29;18.20;51.40
32293;DHT22;43233;48.608;8.838;2023-06-26T03:45:55;18.10;51.30
32293;DHT22;43233;48.608;8.838;2023-06-26T03:48:20;18.10;51.70
32293;DHT22;43233;48.608;8.838;2023-06-26T03:50:46;18.20;51.60
32293;DHT22;43233;48.608;8.838;2023-06-26T03:53:11;18.10;51.70
32293;DHT22;43233;48.608;8.838;2023-06-26T03:55:37;18.10;51.70
32293;DHT22;43233;48.608;8.838;2023-06-26T03:58:04;18.00;51.90
32293;DHT22;43233;48.608;8.838;2023-06-26T04:00:30;18.00;52.20
32293;DHT22;43233;48.608;8.838;2023-06-26T04:02:56;18.00;52.50
32293;DHT22;43233;48.608;8.838;2023-06-26T04:05:23;18.00;52.50
32293;DHT22;43233;48.608;8.838;2023-06-26T04:07:52;17.90;52.90
32293;DHT22;43233;48.608;8.838;2023-06-26T04:10:18;17.90;52.90
32293;DHT22;43233;48.608;8.838;2023-06-26T04:12:45;17.90;53.10
32293;DHT22;43233;48.608;8.838;2023-06-26T04:15:10;17.90;53.20
32293;DHT22;43233;48.608;8.838;2023-06-26T04:17:36;17.90;53.20
32293;DHT22;43233;48.608;8.838;2023-06-26T04:20:02;17.90;53.10
32293;DHT22;43233;48.608;8.838;2023-06-26T04:22:32;18.00;53.00
32293;DHT22;43233;48.608;8.838;2023-06-26T04:24:57;18.10;52.70
32293;DHT22;43233;48.608;8.838;2023-06-26T04:27:23;18.00;52.70
32293;DHT22;43233;48.608;8.838;2023-06-26T04:29:49;18.00;52.60
32293;DHT22;43233;48.608;8.838;2023-06-26T04:32:15;18.00;52.70
32293;DHT22;43233;48.608;8.838;2023-06-26T04:34:40;18.00;52.90
32293;DHT22;43233;48.608;8.838;2023-06-26T04:37:09;18.10;52.70
32293;DHT22;43233;48.608;8.838;2023-06-26T04:39:38;18.10;53.00
32293;DHT22;43233;48.608;8.838;2023-06-26T04:42:05;18.10;53.60
32293;DHT22;43233;48.608;8.838;2023-06-26T04:44:31;18.10;53.30
32293;DHT22;43233;48.608;8.838;2023-06-26T04:46:57;18.20;53.40
32293;DHT22;43233;48.608;8.838;2023-06-26T04:49:22;18.10;53.40
32293;DHT22;43233;48.608;8.838;2023-06-26T04:51:48;18.10;53.70
32293;DHT22;43233;48.608;8.838;2023-06-26T04:54:16;18.10;54.00
32293;DHT22;43233;48.608;8.838;2023-06-26T04:56:42;18.10;54.00
32293;DHT22;43233;48.608;8.838;2023-06-26T04:59:09;18.20;54.30
32293;DHT22;43233;48.608;8.838;2023-06-26T05:01:38;18.30;54.60
32293;DHT22;43233;48.608;8.838;2023-06-26T05:04:05;18.30;54.30
32293;DHT22;43233;48.608;8.838;2023-06-26T05:06:31;18.40;53.50
32293;DHT22;43233;48.608;8.838;2023-06-26T05:08:56;18.60;52.70
32293;DHT22;43233;48.608;8.838;2023-06-26T05:11:22;18.70;52.50
32293;DHT22;43233;48.608;8.838;2023-06-26T05:13:49;18.60;52.60
32293;DHT22;43233;48.608;8.838;2023-06-26T05:16:14;18.70;53.00
32293;DHT22;43233;48.608;8.838;2023-06-26T05:18:40;18.80;52.20
32293;DHT22;43233;48.608;8.838;2023-06-26T05:21:06;18.80;52.00
32293;DHT22;43233;48.608;8.838;2023-06-26T05:23:33;18.90;51.90
32293;DHT22;43233;48.608;8.838;2023-06-26T05:26:00;18.90;51.50
32293;DHT22;43233;48.608;8.838;2023-06-26T05:28:26;18.90;51.50
32293;DHT22;43233;48.608;8.838;2023-06-26T05:30:53;19.00;51.60
32293;DHT22;43233;48.608;8.838;2023-06-26T05:33:22;19.20;51.10
32293;DHT22;43233;48.608;8.838;2023-06-26T05:35:49;19.20;50.80
32293;DHT22;43233;48.608;8.838;2023-06-26T05:38:17;19.20;50.70
32293;DHT22;43233;48.608;8.838;2023-06-26T05:40:43;19.20;50.70
32293;DHT22;43233;48.608;8.838;2023-06-26T05:43:09;19.30;51.00
32293;DHT22;43233;48.608;8.838;2023-06-26T05:45:35;19.30;51.00
32293;DHT22;43233;48.608;8.838;2023-06-26T05:48:01;19.30;51.30
32293;DHT22;43233;48.608;8.838;2023-06-26T05:50:27;19.40;51.10
32293;DHT22;43233;48.608;8.838;2023-06-26T05:52:53;19.40;51.00
32293;DHT22;43233;48.608;8.838;2023-06-26T05:55:19;19.40;50.80
32293;DHT22;43233;48.608;8.838;2023-06-26T05:57:45;19.40;51.00
32293;DHT22;43233;48.608;8.838;2023-06-26T06:00:12;19.50;50.90
32293;DHT22;43233;48.608;8.838;2023-06-26T06:02:38;19.50;51.40
32293;DHT22;43233;48.608;8.838;2023-06-26T06:05:05;19.60;51.30
32293;DHT22;43233;48.608;8.838;2023-06-26T06:07:32;19.70;51.30
32293;DHT22;43233;48.608;8.838;2023-06-26T06:09:59;19.70;51.10
32293;DHT22;43233;48.608;8.838;2023-06-26T06:12:24;19.70;51.30
32293;DHT22;43233;48.608;8.838;2023-06-26T06:14:51;19.80;51.50
32293;DHT22;43233;48.608;8.838;2023-06-26T06:17:16;19.90;52.60
32293;DHT22;43233;48.608;8.838;2023-06-26T06:19:42;20.00;51.90
32293;DHT22;43233;48.608;8.838;2023-06-26T06:22:07;20.10;51.60
32293;DHT22;43233;48.608;8.838;2023-06-26T06:24:33;20.10;52.30
32293;DHT22;43233;48.608;8.838;2023-06-26T06:26:58;20.30;51.50
32293;DHT22;43233;48.608;8.838;2023-06-26T06:29:24;20.30;51.50
32293;DHT22;43233;48.608;8.838;2023-06-26T06:31:50;20.40;51.90
32293;DHT22;43233;48.608;8.838;2023-06-26T06:34:16;20.40;51.90
32293;DHT22;43233;48.608;8.838;2023-06-26T06:36:42;20.40;51.80
32293;DHT22;43233;48.608;8.838;2023-06-26T06:39:08;20.50;51.90
32293;DHT22;43233;48.608;8.838;2023-06-26T06:41:33;20.70;52.10
32293;DHT22;43233;48.608;8.838;2023-06-26T06:43:59;20.80;52.50
32293;DHT22;43233;48.608;8.838;2023-06-26T06:46:25;20.90;52.70
32293;DHT22;43233;48.608;8.838;2023-06-26T06:48:52;20.90;52.20
32293;DHT22;43233;48.608;8.838;2023-06-26T06:51:18;21.00;52.40
32293;DHT22;43233;48.608;8.838;2023-06-26T06:53:44;21.00;52.00
32293;DHT22;43233;48.608;8.838;2023-06-26T06:56:10;21.10;52.50
32293;DHT22;43233;48.608;8.838;2023-06-26T06:58:35;21.20;52.80
32293;DHT22;43233;48.608;8.838;2023-06-26T07:01:01;21.20;52.70
32293;DHT22;43233;48.608;8.838;2023-06-26T07:03:30;21.30;53.40
32293;DHT22;43233;48.608;8.838;2023-06-26T07:05:56;21.40;52.80
32293;DHT22;43233;48.608;8.838;2023-06-26T07:08:21;21.50;52.80
32293;DHT22;43233;48.608;8.838;2023-06-26T07:10:47;21.60;52.70
32293;DHT22;43233;48.608;8.838;2023-06-26T07:13:13;21.70;52.60
32293;DHT22;43233;48.608;8.838;2023-06-26T07:15:38;21.80;52.20
32293;DHT22;43233;48.608;8.838;2023-06-26T07:18:04;21.90;52.70
32293;DHT22;43233;48.608;8.838;2023-06-26T07:20:30;22.10;52.60
32293;DHT22;43233;48.608;8.838;2023-06-26T07:22:56;22.20;51.50
32293;DHT22;43233;48.608;8.838;2023-06-26T07:25:21;22.30;52.20
32293;DHT22;43233;48.608;8.838;2023-06-26T07:27:47;22.40;50.40
32293;DHT22;43233;48.608;8.838;2023-06-26T07:30:12;22.60;49.50
32293;DHT22;43233;48.608;8.838;2023-06-26T07:32:38;22.80;43.70
32293;DHT22;43233;48.608;8.838;2023-06-26T07:35:06;23.00;42.10
32293;DHT22;43233;48.608;8.838;2023-06-26T07:37:31;23.20;41.20
32293;DHT22;43233;48.608;8.838;2023-06-26T07:39:57;23.50;40.20
32293;DHT22;43233;48.608;8.838;2023-06-26T07:42:23;23.70;40.30
32293;DHT22;43233;48.608;8.838;2023-06-26T07:44:48;23.90;38.50
32293;DHT22;43233;48.608;8.838;2023-06-26T07:47:14;24.20;38.40
32293;DHT22;43233;48.608;8.838;2023-06-26T07:49:40;24.30;37.40
32293;DHT22;43233;48.608;8.838;2023-06-26T07:52:06;24.50;36.80
32293;DHT22;43233;48.608;8.838;2023-06-26T07:54:32;24.60;36.50
32293;DHT22;43233;48.608;8.838;2023-06-26T07:57:02;24.80;35.70
32293;DHT22;43233;48.608;8.838;2023-06-26T07:59:28;25.10;35.60
32293;DHT22;43233;48.608;8.838;2023-06-26T08:01:56;25.20;33.40
32293;DHT22;43233;48.608;8.838;2023-06-26T08:04:23;25.20;34.20
32293;DHT22;43233;48.608;8.838;2023-06-26T08:06:51;25.40;33.80
32293;DHT22;43233;48.608;8.838;2023-06-26T08:09:18;25.50;33.20
32293;DHT22;43233;48.608;8.838;2023-06-26T08:11:44;25.70;33.00
32293;DHT22;43233;48.608;8.838;2023-06-26T08:14:10;25.90;32.70
32293;DHT22;43233;48.608;8.838;2023-06-26T08:16:38;26.00;31.70
32293;DHT22;43233;48.608;8.838;2023-06-26T08:19:04;26.10;31.70
32293;DHT22;43233;48.608;8.838;2023-06-26T08:21:29;26.10;31.90
32293;DHT22;43233;48.608;8.838;2023-06-26T08:23:56;26.10;32.50
32293;DHT22;43233;48.608;8.838;2023-06-26T08:26:21;26.20;32.90
32293;DHT22;43233;48.608;8.838;2023-06-26T08:28:47;26.30;31.60
32293;DHT22;43233;48.608;8.838;2023-06-26T08:31:13;26.40;30.90
32293;DHT22;43233;48.608;8.838;2023-06-26T08:33:38;26.50;32.00
32293;DHT22;43233;48.608;8.838;2023-06-26T08:36:04;26.60;31.10
32293;DHT22;43233;48.608;8.838;2023-06-26T08:38:29;26.80;29.40
32293;DHT22;43233;48.608;8.838;2023-06-26T08:40:55;26.90;29.90
32293;DHT22;43233;48.608;8.838;2023-06-26T08:43:21;26.90;29.00
32293;DHT22;43233;48.608;8.838;2023-06-26T08:45:47;26.90;29.30
32293;DHT22;43233;48.608;8.838;2023-06-26T08:48:17;27.00;29.40
32293;DHT22;43233;48.608;8.838;2023-06-26T08:50:43;26.90;27.90
32293;DHT22;43233;48.608;8.838;2023-06-26T08:56:15;27.20;29.00
32293;DHT22;43233;48.608;8.838;2023-06-26T08:58:43;27.30;29.40
32293;DHT22;43233;48.608;8.838;2023-06-26T09:01:09;27.50;28.90
32293;DHT22;43233;48.608;8.838;2023-06-26T09:03:36;27.60;29.60
32293;DHT22;43233;48.608;8.838;2023-06-26T09:06:02;27.70;28.60
32293;DHT22;43233;48.608;8.838;2023-06-26T09:08:27;27.80;26.30
32293;DHT22;43233;48.608;8.838;2023-06-26T09:10:53;27.80;26.80
32293;DHT22;43233;48.608;8.838;2023-06-26T09:13:19;27.90;26.70
32293;DHT22;43233;48.608;8.838;2023-06-26T09:15:45;28.00;27.20
32293;DHT22;43233;48.608;8.838;2023-06-26T09:18:12;28.20;27.00
32293;DHT22;43233;48.608;8.838;2023-06-26T09:20:38;28.30;27.00
32293;DHT22;43233;48.608;8.838;2023-06-26T09:23:04;28.50;26.40
32293;DHT22;43233;48.608;8.838;2023-06-26T09:25:31;28.60;26.00
32293;DHT22;43233;48.608;8.838;2023-06-26T09:27:57;28.60;26.30
32293;DHT22;43233;48.608;8.838;2023-06-26T09:30:22;28.80;26.50
32293;DHT22;43233;48.608;8.838;2023-06-26T09:32:48;28.90;25.40
32293;DHT22;43233;48.608;8.838;2023-06-26T09:35:16;28.90;25.60
32293;DHT22;43233;48.608;8.838;2023-06-26T09:37:43;28.90;26.50
32293;DHT22;43233;48.608;8.838;2023-06-26T09:40:09;28.90;25.50
32293;DHT22;43233;48.608;8.838;2023-06-26T09:42:35;28.90;25.50
32293;DHT22;43233;48.608;8.838;2023-06-26T09:45:02;28.80;26.00
32293;DHT22;43233;48.608;8.838;2023-06-26T09:47:30;28.90;26.40
32293;DHT22;43233;48.608;8.838;2023-06-26T09:49:57;29.00;26.50
32293;DHT22;43233;48.608;8.838;2023-06-26T09:52:26;29.10;26.60
32293;DHT22;43233;48.608;8.838;2023-06-26T09:55:07;29.20;26.70
32293;DHT22;43233;48.608;8.838;2023-06-26T09:57:34;29.40;25.50
32293;DHT22;43233;48.608;8.838;2023-06-26T10:00:01;29.50;26.60
32293;DHT22;43233;48.608;8.838;2023-06-26T10:02:27;29.50;24.40
32293;DHT22;43233;48.608;8.838;2023-06-26T10:04:53;29.50;26.10
32293;DHT22;43233;48.608;8.838;2023-06-26T10:07:19;29.60;24.60
32293;DHT22;43233;48.608;8.838;2023-06-26T10:09:46;29.60;25.20
32293;DHT22;43233;48.608;8.838;2023-06-26T10:12:23;29.70;25.50
32293;DHT22;43233;48.608;8.838;2023-06-26T10:14:51;29.70;25.50
32293;DHT22;43233;48.608;8.838;2023-06-26T10:17:19;29.70;26.40
32293;DHT22;43233;48.608;8.838;2023-06-26T10:19:49;29.70;25.90
32293;DHT22;43233;48.608;8.838;2023-06-26T10:22:17;29.60;25.90
32293;DHT22;43233;48.608;8.838;2023-06-26T10:24:45;29.60;26.40
32293;DHT22;43233;48.608;8.838;2023-06-26T10:27:19;29.50;26.90
32293;DHT22;43233;48.608;8.838;2023-06-26T10:29:50;29.50;26.70
32293;DHT22;43233;48.608;8.838;2023-06-26T10:32:18;29.50;26.80
32293;DHT22;43233;48.608;8.838;2023-06-26T10:34:44;29.50;27.90
32293;DHT22;43233;48.608;8.838;2023-06-26T10:37:12;29.40;28.70
32293;DHT22;43233;48.608;8.838;2023-06-26T10:42:17;29.30;28.40
32293;DHT22;43233;48.608;8.838;2023-06-26T10:44:45;29.20;29.40
32293;DHT22;43233;48.608;8.838;2023-06-26T10:47:28;29.10;29.30
32293;DHT22;43233;48.608;8.838;2023-06-26T10:49:54;29.00;30.00
32293;DHT22;43233;48.608;8.838;2023-06-26T10:52:20;29.10;30.30
32293;DHT22;43233;48.608;8.838;2023-06-26T10:54:45;29.10;30.60
32293;DHT22;43233;48.608;8.838;2023-06-26T10:57:11;29.10;29.80
32293;DHT22;43233;48.608;8.838;2023-06-26T10:59:40;29.20;29.80
32293;DHT22;43233;48.608;8.838;2023-06-26T11:02:06;29.20;29.30
32293;DHT22;43233;48.608;8.838;2023-06-26T11:07:25;29.20;29.70
32293;DHT22;43233;48.608;8.838;2023-06-26T11:10:02;29.30;28.50
32293;DHT22;43233;48.608;8.838;2023-06-26T11:12:35;29.10;28.90
32293;DHT22;43233;48.608;8.838;2023-06-26T11:15:13;29.20;29.00
32293;DHT22;43233;48.608;8.838;2023-06-26T11:17:41;29.20;29.30
32293;DHT22;43233;48.608;8.838;2023-06-26T11:20:08;29.30;29.60
32293;DHT22;43233;48.608;8.838;2023-06-26T11:22:39;29.20;29.10
32293;DHT22;43233;48.608;8.838;2023-06-26T11:25:06;29.30;29.00
32293;DHT22;43233;48.608;8.838;2023-06-26T11:27:38;29.30;29.90
32293;DHT22;43233;48.608;8.838;2023-06-26T11:30:05;29.20;29.40
32293;DHT22;43233;48.608;8.838;2023-06-26T11:32:36;29.30;29.70
32293;DHT22;43233;48.608;8.838;2023-06-26T11:35:02;29.40;29.80
32293;DHT22;43233;48.608;8.838;2023-06-26T11:37:30;29.50;30.00
32293;DHT22;43233;48.608;8.838;2023-06-26T11:39:56;29.50;29.60
32293;DHT22;43233;48.608;8.838;2023-06-26T11:42:23;29.50;29.60
32293;DHT22;43233;48.608;8.838;2023-06-26T11:44:49;29.50;29.70
32293;DHT22;43233;48.608;8.838;2023-06-26T11:47:20;29.60;29.20
32293;DHT22;43233;48.608;8.838;2023-06-26T11:49:48;29.70;29.00
32293;DHT22;43233;48.608;8.838;2023-06-26T11:52:14;29.70;29.20
32293;DHT22;43233;48.608;8.838;2023-06-26T11:54:41;29.50;30.00
32293;DHT22;43233;48.608;8.838;2023-06-26T11:57:08;29.50;29.30
32293;DHT22;43233;48.608;8.838;2023-06-26T11:59:34;29.30;30.00
32293;DHT22;43233;48.608;8.838;2023-06-26T12:02:04;29.40;30.70
32293;DHT22;43233;48.608;8.838;2023-06-26T12:04:30;29.50;30.60
32293;DHT22;43233;48.608;8.838;2023-06-26T12:06:56;29.60;30.10
32293;DHT22;43233;48.608;8.838;2023-06-26T12:09:22;29.70;30.00
32293;DHT22;43233;48.608;8.838;2023-06-26T12:11:53;29.60;29.20
32293;DHT22;43233;48.608;8.838;2023-06-26T12:14:20;29.60;30.30
32293;DHT22;43233;48.608;8.838;2023-06-26T12:16:47;29.50;31.40
32293;DHT22;43233;48.608;8.838;2023-06-26T12:19:13;29.50;29.70
32293;DHT22;43233;48.608;8.838;2023-06-26T12:24:19;29.40;30.80
32293;DHT22;43233;48.608;8.838;2023-06-26T12:26:46;29.50;30.90
32293;DHT22;43233;48.608;8.838;2023-06-26T12:29:13;29.40;31.60
32293;DHT22;43233;48.608;8.838;2023-06-26T12:31:42;29.40;31.70
32293;DHT22;43233;48.608;8.838;2023-06-26T12:34:15;29.40;31.30
32293;DHT22;43233;48.608;8.838;2023-06-26T12:36:50;29.50;31.00
32293;DHT22;43233;48.608;8.838;2023-06-26T12:39:17;29.50;31.20
32293;DHT22;43233;48.608;8.838;2023-06-26T12:41:51;29.50;31.20
32293;DHT22;43233;48.608;8.838;2023-06-26T12:44:29;29.40;31.80
32293;DHT22;43233;48.608;8.838;2023-06-26T12:47:01;29.30;31.60
32293;DHT22;43233;48.608;8.838;2023-06-26T12:49:35;29.30;31.50
32293;DHT22;43233;48.608;8.838;2023-06-26T12:52:02;29.30;31.20
32293;DHT22;43233;48.608;8.838;2023-06-26T12:54:28;29.30;32.20
32293;DHT22;43233;48.608;8.838;2023-06-26T12:56:54;29.40;31.30
32293;DHT22;43233;48.608;8.838;2023-06-26T12:59:21;29.50;31.50
32293;DHT22;43233;48.608;8.838;2023-06-26T13:01:46;29.50;30.50
32293;DHT22;43233;48.608;8.838;2023-06-26T13:04:12;29.50;30.70
32293;DHT22;43233;48.608;8.838;2023-06-26T13:06:38;29.30;31.40
32293;DHT22;43233;48.608;8.838;2023-06-26T13:09:03;29.30;31.00
32293;DHT22;43233;48.608;8.838;2023-06-26T13:11:30;29.20;31.10
32293;DHT22;43233;48.608;8.838;2023-06-26T13:13:56;29.20;30.90
32293;DHT22;43233;48.608;8.838;2023-06-26T13:16:22;29.20;30.90
32293;DHT22;43233;48.608;8.838;2023-06-26T13:18:47;29.20;30.20
32293;DHT22;43233;48.608;8.838;2023-06-26T13:21:14;29.20;30.40
32293;DHT22;43233;48.608;8.838;2023-06-26T13:23:40;29.10;30.50
32293;DHT22;43233;48.608;8.838;2023-06-26T13:26:05;29.10;30.40
32293;DHT22;43233;48.608;8.838;2023-06-26T13:28:31;29.10;30.30
32293;DHT22;43233;48.608;8.838;2023-06-26T13:30:57;29.10;30.80
32293;DHT22;43233;48.608;8.838;2023-06-26T13:33:23;29.10;30.70
32293;DHT22;43233;48.608;8.838;2023-06-26T13:35:51;29.30;30.10
32293;DHT22;43233;48.608;8.838;2023-06-26T13:38:19;29.40;29.70
32293;DHT22;43233;48.608;8.838;2023-06-26T13:40:45;29.50;29.10
32293;DHT22;43233;48.608;8.838;2023-06-26T13:43:10;29.40;29.00
32293;DHT22;43233;48.608;8.838;2023-06-26T13:45:37;29.50;28.60
32293;DHT22;43233;48.608;8.838;2023-06-26T13:48:02;29.30;29.10
32293;DHT22;43233;48.608;8.838;2023-06-26T13:50:29;29.30;29.20
32293;DHT22;43233;48.608;8.838;2023-06-26T13:52:54;29.40;28.50
32293;DHT22;43233;48.608;8.838;2023-06-26T13:55:20;29.40;28.30
32293;DHT22;43233;48.608;8.838;2023-06-26T13:57:48;29.20;28.40
32293;DHT22;43233;48.608;8.838;2023-06-26T14:00:15;29.20;28.70
32293;DHT22;43233;48.608;8.838;2023-06-26T14:02:45;29.10;28.80
32293;DHT22;43233;48.608;8.838;2023-06-26T14:05:11;29.20;28.90
32293;DHT22;43233;48.608;8.838;2023-06-26T14:07:37;29.20;28.60
32293;DHT22;43233;48.608;8.838;2023-06-26T14:10:04;29.20;27.80
32293;DHT22;43233;48.608;8.838;2023-06-26T14:12:31;29.10;27.90
32293;DHT22;43233;48.608;8.838;2023-06-26T14:14:57;29.10;27.90
32293;DHT22;43233;48.608;8.838;2023-06-26T14:17:23;29.10;27.00
32293;DHT22;43233;48.608;8.838;2023-06-26T14:19:51;29.00;28.20
32293;DHT22;43233;48.608;8.838;2023-06-26T14:22:18;28.90;27.80
32293;DHT22;43233;48.608;8.838;2023-06-26T14:24:44;28.90;27.40
32293;DHT22;43233;48.608;8.838;2023-06-26T14:27:09;28.90;27.70
32293;DHT22;43233;48.608;8.838;2023-06-26T14:29:36;29.00;27.30
32293;DHT22;43233;48.608;8.838;2023-06-26T14:32:02;29.00;27.10
32293;DHT22;43233;48.608;8.838;2023-06-26T14:34:27;29.00;27.10
32293;DHT22;43233;48.608;8.838;2023-06-26T14:36:53;29.00;26.90
32293;DHT22;43233;48.608;8.838;2023-06-26T14:39:19;28.90;26.70
32293;DHT22;43233;48.608;8.838;2023-06-26T14:41:44;28.90;27.30
32293;DHT22;43233;48.608;8.838;2023-06-26T14:44:10;28.70;27.40
32293;DHT22;43233;48.608;8.838;2023-06-26T14:46:36;28.70;27.80
32293;DHT22;43233;48.608;8.838;2023-06-26T14:49:02;28.80;27.20
32293;DHT22;43233;48.608;8.838;2023-06-26T14:51:28;28.60;27.10
32293;DHT22;43233;48.608;8.838;2023-06-26T14:53:54;28.60;27.50
32293;DHT22;43233;48.608;8.838;2023-06-26T14:56:20;28.60;27.90
32293;DHT22;43233;48.608;8.838;2023-06-26T14:58:46;28.70;27.60
32293;DHT22;43233;48.608;8.838;2023-06-26T15:01:14;28.80;27.80
32293;DHT22;43233;48.608;8.838;2023-06-26T15:03:41;28.80;27.50
32293;DHT22;43233;48.608;8.838;2023-06-26T15:06:07;28.80;27.30
32293;DHT22;43233;48.608;8.838;2023-06-26T15:08:32;28.80;26.60
32293;DHT22;43233;48.608;8.838;2023-06-26T15:10:59;28.60;27.20
32293;DHT22;43233;48.608;8.838;2023-06-26T15:13:26;28.60;28.10
32293;DHT22;43233;48.608;8.838;2023-06-26T15:15:51;28.60;27.90
32293;DHT22;43233;48.608;8.838;2023-06-26T15:18:17;28.60;28.20
32293;DHT22;43233;48.608;8.838;2023-06-26T15:20:42;28.50;27.70
32293;DHT22;43233;48.608;8.838;2023-06-26T15:23:08;28.50;27.80
32293;DHT22;43233;48.608;8.838;2023-06-26T15:25:33;28.50;27.80
32293;DHT22;43233;48.608;8.838;2023-06-26T15:28:02;28.40;28.30
32293;DHT22;43233;48.608;8.838;2023-06-26T15:30:28;28.40;28.40
32293;DHT22;43233;48.608;8.838;2023-06-26T15:32:53;28.40;27.70
32293;DHT22;43233;48.608;8.838;2023-06-26T15:35:19;28.30;27.70
32293;DHT22;43233;48.608;8.838;2023-06-26T15:37:45;28.20;28.10
32293;DHT22;43233;48.608;8.838;2023-06-26T15:40:11;28.10;28.60
32293;DHT22;43233;48.608;8.838;2023-06-26T15:42:51;28.00;28.60